Capitol Logistics 225


PANC
Ted Stevens Anchorage International Airport
Anchorage, Alaska, US
KLAX
Los Angeles International Airport
Los Angeles, California, US

Route Details

Aircraft Information
Primary: Boeing 767-300BDSF
Backup: Not Available
Route Data
Distance: 2090nm
Sched. Duration: 4h 25m
Avg. Duration: 4h 73m (+48m)
Times Flown: 10
Recm'd Route: MDO B453 KURTT B453 KYLLE B453 BOXER ENI OAK TILLT HUULL HUULL2
Planned Altitude: 31,000ft
Origin Wx: PANC 311253Z 16005KT 10SM CLR M11/M13 A3017 RMK AO2 SLP220 T11061133 $
Dest. Wx: KLAX 311253Z 00000KT 10SM FEW160 SCT200 BKN280 14/09 A3005 RMK AO2 SLP176 T01390089
Notes:

Financial History
Total Freight: 1,114,464lbs
Average Load: 111,446lbs/flt
Fuel Used: 647,030lbs
Avg. Fuel Used: 64,703lbs/flt
Fuel Expense: $775,018
Avg. Fuel Expense: $77,502
Avg. Fuel Cost: $1.19/lbs
Total Gross Income: $2,100,752
Pilot Pay: $1,820
Total Expenses: $223,163
Total Revenue: $1,091,458
Average Revenue: $210,075.22